createdAt,value
2023-08-27T00:02:27.498Z,59.98
2023-08-27T00:04:56.614Z,60.14
2023-08-27T00:07:25.226Z,59.94
2023-08-27T00:09:53.141Z,59.85
2023-08-27T00:12:21.069Z,59.93
2023-08-27T00:14:50.409Z,59.79
2023-08-27T00:17:18.307Z,59.74
2023-08-27T00:19:46.232Z,59.53
2023-08-27T00:22:14.166Z,59.61
2023-08-27T00:24:42.076Z,59.63
2023-08-27T00:27:09.970Z,59.30
2023-08-27T00:29:37.852Z,59.45
2023-08-27T00:32:19.319Z,59.74
2023-08-27T00:34:52.650Z,59.34
2023-08-27T00:37:21.340Z,59.20
2023-08-27T00:39:49.302Z,58.92
2023-08-27T00:42:17.266Z,58.85
2023-08-27T00:44:45.376Z,58.91
2023-08-27T00:47:16.850Z,58.99
2023-08-27T00:49:45.299Z,58.90
2023-08-27T00:52:14.269Z,58.95
2023-08-27T00:54:42.794Z,59.07
2023-08-27T00:57:11.128Z,59.34
2023-08-27T00:59:39.301Z,59.52
2023-08-27T01:02:07.201Z,59.97
2023-08-27T01:04:36.535Z,60.07
2023-08-27T01:07:12.773Z,59.96
2023-08-27T01:09:48.134Z,60.17
2023-08-27T01:12:25.568Z,60.34
2023-08-27T01:14:55.416Z,60.23
2023-08-27T01:17:24.366Z,60.78
2023-08-27T01:19:53.743Z,61.31
2023-08-27T01:22:23.052Z,61.77
2023-08-27T01:24:50.973Z,62.48
2023-08-27T01:27:28.265Z,63.33
2023-08-27T01:30:04.775Z,63.75
2023-08-27T01:32:39.286Z,63.89
2023-08-27T01:35:12.647Z,64.64
2023-08-27T01:37:42.651Z,64.56
2023-08-27T01:40:11.689Z,64.79
2023-08-27T01:42:41.058Z,64.74
2023-08-27T01:45:11.057Z,64.83
2023-08-27T01:47:39.099Z,65.03
2023-08-27T01:50:08.431Z,65.26
2023-08-27T01:52:37.270Z,66.11
2023-08-27T01:55:08.923Z,66.22
2023-08-27T01:57:37.139Z,66.11
2023-08-27T02:00:10.146Z,66.23
2023-08-27T02:02:43.632Z,66.73
2023-08-27T02:05:12.222Z,66.71
2023-08-27T02:07:41.821Z,66.80
2023-08-27T02:10:11.504Z,66.95
2023-08-27T02:12:39.472Z,67.68
2023-08-27T02:15:08.885Z,67.98
2023-08-27T02:17:39.187Z,68.00
2023-08-27T02:20:11.391Z,67.68
2023-08-27T02:22:39.854Z,67.49
2023-08-27T02:25:08.731Z,66.57
2023-08-27T02:27:38.028Z,65.94
2023-08-27T02:30:07.322Z,65.11
2023-08-27T02:32:37.023Z,64.54
2023-08-27T02:35:05.417Z,63.92
2023-08-27T02:37:33.369Z,64.01
2023-08-27T02:40:01.297Z,63.25
2023-08-27T02:42:29.258Z,63.67
2023-08-27T02:44:58.509Z,64.63
2023-08-27T02:47:26.469Z,64.86
2023-08-27T02:49:56.849Z,65.42
2023-08-27T02:52:24.802Z,66.41
2023-08-27T02:54:52.858Z,66.60
2023-08-27T02:57:20.856Z,66.27
2023-08-27T02:59:49.123Z,66.86
2023-08-27T03:02:18.613Z,66.46
2023-08-27T03:04:46.543Z,65.68
2023-08-27T03:07:15.670Z,65.15
2023-08-27T03:09:43.594Z,64.52
2023-08-27T03:12:11.471Z,64.29
2023-08-27T03:14:39.341Z,63.91
2023-08-27T03:17:07.328Z,63.90
2023-08-27T03:19:36.588Z,63.71
2023-08-27T03:22:04.807Z,63.62
2023-08-27T03:24:32.863Z,63.17
2023-08-27T03:27:00.844Z,63.40
2023-08-27T03:29:30.586Z,63.60
2023-08-27T03:31:58.602Z,63.49
2023-08-27T03:34:26.622Z,63.26
2023-08-27T03:36:55.987Z,63.07
2023-08-27T03:39:24.001Z,62.85
2023-08-27T03:41:51.944Z,63.31
2023-08-27T03:44:19.829Z,63.05
2023-08-27T03:46:47.776Z,62.96
2023-08-27T03:49:15.906Z,62.86
2023-08-27T03:51:45.436Z,62.78
2023-08-27T03:54:15.545Z,63.14
2023-08-27T03:56:43.493Z,62.90
2023-08-27T03:59:11.394Z,63.48
2023-08-27T04:01:39.438Z,63.05
2023-08-27T04:04:07.488Z,63.57
2023-08-27T04:06:35.814Z,63.12
2023-08-27T04:09:05.283Z,63.07
2023-08-27T04:11:34.612Z,63.17
2023-08-27T04:14:02.525Z,63.56
2023-08-27T04:16:31.192Z,63.41
2023-08-27T04:18:59.103Z,62.96
2023-08-27T04:21:27.121Z,63.27
2023-08-27T04:23:56.717Z,63.05
2023-08-27T04:26:25.318Z,62.87
2023-08-27T04:28:56.030Z,62.98
2023-08-27T04:31:24.042Z,62.84
2023-08-27T04:33:52.000Z,63.33
2023-08-27T04:36:21.202Z,63.05
2023-08-27T04:38:49.084Z,63.03
2023-08-27T04:41:17.044Z,63.21
2023-08-27T04:43:46.244Z,62.99
2023-08-27T04:46:15.602Z,63.30
2023-08-27T04:48:43.587Z,62.81
2023-08-27T04:51:11.552Z,63.28
2023-08-27T04:53:39.480Z,63.13
2023-08-27T04:56:07.442Z,63.05
2023-08-27T04:58:36.384Z,62.74
2023-08-27T05:01:04.624Z,63.21
2023-08-27T05:03:34.379Z,62.92
2023-08-27T05:06:02.384Z,62.88
2023-08-27T05:08:30.341Z,62.87
2023-08-27T05:10:58.412Z,62.61
2023-08-27T05:13:28.092Z,63.07
2023-08-27T05:15:56.038Z,62.79
2023-08-27T05:18:24.141Z,62.50
2023-08-27T05:20:53.581Z,62.67
2023-08-27T05:23:23.829Z,62.71
2023-08-27T05:25:52.031Z,61.91
2023-08-27T05:28:21.028Z,62.13
2023-08-27T05:30:49.037Z,62.43
2023-08-27T05:33:17.319Z,62.31
2023-08-27T05:35:45.344Z,62.44
2023-08-27T05:38:14.705Z,62.32
2023-08-27T05:40:42.746Z,62.36
2023-08-27T05:43:10.644Z,61.79
2023-08-27T05:45:38.561Z,61.57
2023-08-27T05:48:07.849Z,61.73
2023-08-27T05:50:38.024Z,61.67
2023-08-27T05:53:06.239Z,61.60
2023-08-27T05:55:37.311Z,61.75
2023-08-27T05:58:06.471Z,61.92
2023-08-27T06:00:35.571Z,62.14
2023-08-27T06:03:04.881Z,62.47
2023-08-27T06:05:33.228Z,62.69
2023-08-27T06:08:03.996Z,63.46
2023-08-27T06:10:33.078Z,64.43
2023-08-27T06:13:04.496Z,65.47
2023-08-27T06:15:35.597Z,66.14
2023-08-27T06:18:04.904Z,66.37
2023-08-27T06:20:33.292Z,66.73
2023-08-27T06:23:01.824Z,66.34
2023-08-27T06:25:29.733Z,66.26
2023-08-27T06:27:58.291Z,65.88
2023-08-27T06:30:27.837Z,66.39
2023-08-27T06:32:56.292Z,66.38
2023-08-27T06:35:24.926Z,65.80
2023-08-27T06:37:52.829Z,65.57
2023-08-27T06:40:21.008Z,64.61
2023-08-27T06:42:48.982Z,64.79
2023-08-27T06:45:23.065Z,63.84
2023-08-27T06:47:53.071Z,63.10
2023-08-27T06:50:21.226Z,62.58
2023-08-27T06:52:49.346Z,62.15
2023-08-27T06:55:17.501Z,61.82
2023-08-27T06:57:45.500Z,61.42
2023-08-27T07:00:14.422Z,61.30
2023-08-27T07:02:45.197Z,60.79
2023-08-27T07:05:15.238Z,60.52
2023-08-27T07:07:44.069Z,60.31
2023-08-27T07:10:13.091Z,59.85
2023-08-27T07:12:41.813Z,59.81
2023-08-27T07:15:12.035Z,59.61
2023-08-27T07:17:40.902Z,59.35
2023-08-27T07:20:10.309Z,59.38
2023-08-27T07:22:39.711Z,59.21
2023-08-27T07:25:10.069Z,59.20
2023-08-27T07:27:38.778Z,58.93
2023-08-27T07:30:09.020Z,58.93
2023-08-27T07:32:37.910Z,58.55
2023-08-27T07:35:08.656Z,58.53
2023-08-27T07:37:39.758Z,58.57
2023-08-27T07:40:11.798Z,59.13
2023-08-27T07:42:40.135Z,59.52
2023-08-27T07:45:09.090Z,59.69
2023-08-27T07:47:37.507Z,59.48
2023-08-27T07:50:07.173Z,59.00
2023-08-27T07:52:35.158Z,58.51
2023-08-27T07:55:05.381Z,58.68
2023-08-27T07:57:33.376Z,58.32
2023-08-27T08:00:01.371Z,58.42
2023-08-27T08:02:30.497Z,58.11
2023-08-27T08:04:59.675Z,57.83
2023-08-27T08:07:27.703Z,57.59
2023-08-27T08:09:55.753Z,57.67
2023-08-27T08:12:24.986Z,57.66
2023-08-27T08:14:54.124Z,57.80
2023-08-27T08:17:28.863Z,57.75
2023-08-27T08:20:04.866Z,57.48
2023-08-27T08:22:32.819Z,57.40
2023-08-27T08:25:00.992Z,57.59
2023-08-27T08:27:30.240Z,57.63
2023-08-27T08:29:58.250Z,57.50
2023-08-27T08:32:26.112Z,57.57
2023-08-27T08:34:55.175Z,57.53
2023-08-27T08:37:23.378Z,57.77
2023-08-27T08:39:51.586Z,57.85
2023-08-27T08:42:28.654Z,57.44
2023-08-27T08:45:08.664Z,57.87
2023-08-27T08:47:37.857Z,57.72
2023-08-27T08:50:09.387Z,57.88
2023-08-27T08:52:40.665Z,58.50
2023-08-27T08:55:10.613Z,58.40
2023-08-27T08:57:44.558Z,59.19
2023-08-27T09:00:15.177Z,58.76
2023-08-27T09:02:44.827Z,58.93
2023-08-27T09:05:13.446Z,58.85
2023-08-27T09:07:43.879Z,58.93
2023-08-27T09:10:13.634Z,59.21
2023-08-27T09:12:42.845Z,59.00
2023-08-27T09:15:11.576Z,58.90
2023-08-27T09:17:41.096Z,59.29
2023-08-27T09:20:09.839Z,59.06
2023-08-27T09:22:38.965Z,59.02
2023-08-27T09:25:08.032Z,59.06
2023-08-27T09:27:36.116Z,59.06
2023-08-27T09:30:05.651Z,58.91
2023-08-27T09:32:34.746Z,59.06
2023-08-27T09:35:05.789Z,58.97
2023-08-27T09:37:40.310Z,59.12
2023-08-27T09:40:09.505Z,58.83
2023-08-27T09:42:37.979Z,58.93
2023-08-27T09:45:08.085Z,58.62
2023-08-27T09:47:38.199Z,57.87
2023-08-27T09:50:09.613Z,58.33
2023-08-27T09:52:37.535Z,57.99
2023-08-27T09:55:07.156Z,57.94
2023-08-27T09:57:35.078Z,57.83
2023-08-27T10:00:09.434Z,58.04
2023-08-27T10:02:45.113Z,57.97
2023-08-27T10:05:16.702Z,58.23
2023-08-27T10:07:57.255Z,57.84
2023-08-27T10:10:26.050Z,57.94
2023-08-27T10:12:54.503Z,57.88
2023-08-27T10:15:24.421Z,57.37
2023-08-27T10:17:54.480Z,57.67
2023-08-27T10:20:23.833Z,56.96
2023-08-27T10:22:52.283Z,57.28
2023-08-27T10:25:20.527Z,57.19
2023-08-27T10:27:50.229Z,56.89
2023-08-27T10:30:19.931Z,57.38
2023-08-27T10:32:48.446Z,56.58
2023-08-27T10:35:17.667Z,56.73
2023-08-27T10:37:53.160Z,56.92
2023-08-27T10:40:22.802Z,56.53
2023-08-27T10:42:50.778Z,55.85
2023-08-27T10:45:21.523Z,56.12
2023-08-27T10:48:07.719Z,56.16
2023-08-27T10:50:48.049Z,55.95
2023-08-27T10:53:18.354Z,55.68
2023-08-27T10:55:52.265Z,55.66
2023-08-27T10:58:22.241Z,55.58
2023-08-27T11:01:03.452Z,55.29
2023-08-27T11:03:52.820Z,55.17
2023-08-27T11:06:21.406Z,54.69
2023-08-27T11:08:54.025Z,54.61
2023-08-27T11:11:26.240Z,55.01
2023-08-27T11:14:17.628Z,54.80
2023-08-27T11:16:49.646Z,54.94
2023-08-27T11:19:30.995Z,54.85
2023-08-27T11:22:07.721Z,54.39
2023-08-27T11:24:39.871Z,54.46
2023-08-27T11:27:08.183Z,54.12
2023-08-27T11:29:39.591Z,54.26
2023-08-27T11:32:09.026Z,54.70
2023-08-27T11:34:38.179Z,54.47
2023-08-27T11:37:06.680Z,54.33
2023-08-27T11:39:36.187Z,53.50
2023-08-27T11:42:10.486Z,51.88
2023-08-27T11:44:47.380Z,51.14
2023-08-27T11:47:15.299Z,51.04
2023-08-27T11:49:43.230Z,51.14
2023-08-27T11:52:11.268Z,48.59
2023-08-27T11:54:39.181Z,47.34
2023-08-27T11:57:08.575Z,47.03
2023-08-27T11:59:36.546Z,46.94
2023-08-27T12:02:04.894Z,47.04
2023-08-27T12:04:34.071Z,46.93
2023-08-27T12:07:03.722Z,47.01
2023-08-27T12:09:33.053Z,46.88
2023-08-27T12:12:03.668Z,46.23
2023-08-27T12:14:33.068Z,46.09
2023-08-27T12:17:53.744Z,46.19
2023-08-27T12:20:32.588Z,45.72
2023-08-27T12:23:12.017Z,45.71
2023-08-27T12:25:47.332Z,45.41
2023-08-27T12:28:15.380Z,45.23
2023-08-27T12:30:49.182Z,44.92
2023-08-27T12:33:17.133Z,44.72
2023-08-27T12:35:46.032Z,44.08
2023-08-27T12:38:14.447Z,42.49
2023-08-27T12:40:42.447Z,41.67
2023-08-27T12:43:10.365Z,41.54
2023-08-27T12:45:38.304Z,41.50
2023-08-27T12:48:08.385Z,41.91
2023-08-27T12:50:36.374Z,42.22
2023-08-27T12:53:04.563Z,41.65
2023-08-27T12:55:32.515Z,41.88
2023-08-27T12:58:00.597Z,41.77
2023-08-27T13:00:28.810Z,41.89
2023-08-27T13:02:58.016Z,41.03
2023-08-27T13:05:27.646Z,40.07
2023-08-27T13:08:01.709Z,39.87
2023-08-27T13:10:30.062Z,39.97
2023-08-27T13:12:58.112Z,39.71
2023-08-27T13:15:26.278Z,39.94
2023-08-27T13:17:54.280Z,39.92
2023-08-27T13:20:22.432Z,40.05
2023-08-27T13:22:51.640Z,39.34
2023-08-27T13:25:19.503Z,39.15
2023-08-27T13:27:47.890Z,39.07
2023-08-27T13:30:15.942Z,39.30
2023-08-27T13:32:43.829Z,39.25
2023-08-27T13:35:11.723Z,39.15
2023-08-27T13:37:39.670Z,39.09
2023-08-27T13:40:09.897Z,38.57
2023-08-27T13:42:37.825Z,39.12
2023-08-27T13:45:06.465Z,38.77
2023-08-27T13:47:34.530Z,39.38
2023-08-27T13:50:02.606Z,38.72
2023-08-27T13:52:31.046Z,38.79
2023-08-27T13:54:59.017Z,37.68
2023-08-27T13:57:28.519Z,37.31
2023-08-27T13:59:56.692Z,36.78
2023-08-27T14:02:24.650Z,35.83
2023-08-27T14:04:52.712Z,35.76
2023-08-27T14:07:20.568Z,35.15
2023-08-27T14:09:48.481Z,35.41
2023-08-27T14:12:16.926Z,35.77
2023-08-27T14:14:46.534Z,36.51
2023-08-27T14:17:14.494Z,36.73
2023-08-27T14:19:42.446Z,36.75
2023-08-27T14:22:10.411Z,36.69
2023-08-27T14:24:38.366Z,37.02
2023-08-27T14:27:06.612Z,36.34
2023-08-27T14:29:34.512Z,36.09
2023-08-27T14:32:04.571Z,35.96
2023-08-27T14:34:33.050Z,35.77
2023-08-27T14:37:01.158Z,35.72
2023-08-27T14:39:29.462Z,36.08
2023-08-27T14:41:57.394Z,35.80
2023-08-27T14:44:25.318Z,35.41
2023-08-27T14:46:53.314Z,35.65
2023-08-27T14:49:22.684Z,36.24
2023-08-27T14:51:50.600Z,35.56
2023-08-27T14:54:18.569Z,35.49
2023-08-27T14:56:47.025Z,36.26
2023-08-27T14:59:40.226Z,35.85
2023-08-27T15:02:09.580Z,35.73
2023-08-27T15:04:38.849Z,35.63
2023-08-27T15:07:06.998Z,35.70
2023-08-27T15:09:35.284Z,35.25
2023-08-27T15:12:03.752Z,35.94
2023-08-27T15:14:31.838Z,35.67
2023-08-27T15:16:59.708Z,35.98
2023-08-27T15:19:27.661Z,36.09
2023-08-27T15:21:56.907Z,36.07
2023-08-27T15:24:24.772Z,36.87
2023-08-27T15:26:52.693Z,37.39
2023-08-27T15:29:20.645Z,37.57
2023-08-27T15:31:48.649Z,38.50
2023-08-27T15:34:16.668Z,38.22
2023-08-27T15:36:44.535Z,38.87
2023-08-27T15:39:13.810Z,39.00
2023-08-27T15:41:41.855Z,38.65
2023-08-27T15:44:09.844Z,38.87
2023-08-27T15:46:37.919Z,38.67
2023-08-27T15:49:06.046Z,38.31
2023-08-27T15:51:34.025Z,38.25
2023-08-27T15:54:01.964Z,37.94
2023-08-27T15:56:31.295Z,38.44
2023-08-27T15:58:59.294Z,38.02
2023-08-27T16:01:27.222Z,38.13
2023-08-27T16:03:55.204Z,38.83
2023-08-27T16:06:23.664Z,38.41
2023-08-27T16:08:54.841Z,38.87
2023-08-27T16:11:23.121Z,39.09
2023-08-27T16:13:52.631Z,39.10
2023-08-27T16:16:23.288Z,39.07
2023-08-27T16:18:52.248Z,38.78
2023-08-27T16:21:20.249Z,39.12
2023-08-27T16:23:48.253Z,38.70
2023-08-27T16:26:16.421Z,38.48
2023-08-27T16:28:44.357Z,39.03
2023-08-27T16:31:19.827Z,38.75
2023-08-27T16:33:48.681Z,39.37
2023-08-27T16:36:16.610Z,39.82
2023-08-27T16:38:44.570Z,39.88
2023-08-27T16:41:12.794Z,39.94
2023-08-27T16:43:40.764Z,39.80
2023-08-27T16:46:08.795Z,39.77
2023-08-27T16:48:39.459Z,40.29
2023-08-27T16:51:08.399Z,41.06
2023-08-27T16:53:36.255Z,41.19
2023-08-27T16:56:04.226Z,41.46
2023-08-27T16:58:32.136Z,41.95
2023-08-27T17:01:00.033Z,42.25
2023-08-27T17:03:28.157Z,42.83
2023-08-27T17:05:58.622Z,43.10
2023-08-27T17:08:26.859Z,43.41
2023-08-27T17:10:55.015Z,43.59
2023-08-27T17:13:22.979Z,43.62
2023-08-27T17:15:50.907Z,44.01
2023-08-27T17:18:18.860Z,43.67
2023-08-27T17:20:50.617Z,43.83
2023-08-27T17:23:20.236Z,44.15
2023-08-27T17:25:48.149Z,43.94
2023-08-27T17:28:16.170Z,43.78
2023-08-27T17:30:44.135Z,44.18
2023-08-27T17:33:12.895Z,44.54
2023-08-27T17:35:41.311Z,44.72
2023-08-27T17:38:09.228Z,44.78
2023-08-27T17:40:39.496Z,44.86
2023-08-27T17:43:07.414Z,45.16
2023-08-27T17:45:35.444Z,45.38
2023-08-27T17:48:07.861Z,45.61
2023-08-27T17:50:36.057Z,45.65
2023-08-27T17:53:04.362Z,45.79
2023-08-27T17:55:32.442Z,46.37
2023-08-27T17:58:02.440Z,46.29
2023-08-27T18:00:30.748Z,46.34
2023-08-27T18:02:58.843Z,46.83
2023-08-27T18:05:26.906Z,46.98
2023-08-27T18:07:54.860Z,46.79
2023-08-27T18:10:22.944Z,47.07
2023-08-27T18:12:50.858Z,47.32
2023-08-27T18:15:20.405Z,47.10
2023-08-27T18:17:48.325Z,47.13
2023-08-27T18:20:16.419Z,47.28
2023-08-27T18:22:44.328Z,47.08
2023-08-27T18:25:12.232Z,47.23
2023-08-27T18:27:40.126Z,47.18
2023-08-27T18:30:09.322Z,46.91
2023-08-27T18:32:43.915Z,47.37
2023-08-27T18:35:11.970Z,47.46
2023-08-27T18:37:40.288Z,48.04
2023-08-27T18:40:09.589Z,47.64
2023-08-27T18:42:37.774Z,47.84
2023-08-27T18:45:06.567Z,48.49
2023-08-27T18:47:34.548Z,48.04
2023-08-27T18:50:04.388Z,48.79
2023-08-27T18:52:32.356Z,48.91
2023-08-27T18:55:02.191Z,48.99
2023-08-27T18:57:30.343Z,49.30
2023-08-27T18:59:58.363Z,48.97
2023-08-27T19:02:26.722Z,49.37
2023-08-27T19:04:54.750Z,50.07
2023-08-27T19:07:24.222Z,50.89
2023-08-27T19:09:52.084Z,51.08
2023-08-27T19:12:20.188Z,50.81
2023-08-27T19:14:48.056Z,50.74
2023-08-27T19:17:16.447Z,51.35
2023-08-27T19:19:44.705Z,50.77
2023-08-27T19:22:12.651Z,51.08
2023-08-27T19:24:43.594Z,51.45
2023-08-27T19:27:11.607Z,50.99
2023-08-27T19:29:39.513Z,51.21
2023-08-27T19:32:07.449Z,51.32
2023-08-27T19:34:35.405Z,51.97
2023-08-27T19:37:03.364Z,51.64
2023-08-27T19:39:31.260Z,52.30
2023-08-27T19:42:00.483Z,52.58
2023-08-27T19:44:28.406Z,52.77
2023-08-27T19:46:56.400Z,52.70
2023-08-27T19:49:24.328Z,52.84
2023-08-27T19:51:52.223Z,53.25
2023-08-27T19:54:20.334Z,53.44
2023-08-27T19:56:48.222Z,53.23
2023-08-27T19:59:19.817Z,53.65
2023-08-27T20:01:49.134Z,53.48
2023-08-27T20:04:17.820Z,53.95
2023-08-27T20:06:46.784Z,53.91
2023-08-27T20:09:14.957Z,53.63
2023-08-27T20:11:43.271Z,53.53
2023-08-27T20:14:11.206Z,54.30
2023-08-27T20:16:40.475Z,54.55
2023-08-27T20:19:08.428Z,54.92
2023-08-27T20:21:36.410Z,54.96
2023-08-27T20:24:05.241Z,54.90
2023-08-27T20:26:33.795Z,54.83
2023-08-27T20:29:01.921Z,55.42
2023-08-27T20:31:29.971Z,55.46
2023-08-27T20:33:59.429Z,55.35
2023-08-27T20:36:27.477Z,55.72
2023-08-27T20:38:55.417Z,55.84
2023-08-27T20:41:23.645Z,56.82
2023-08-27T20:43:52.269Z,56.98
2023-08-27T20:46:20.853Z,56.94
2023-08-27T20:48:48.749Z,56.92
2023-08-27T20:51:18.056Z,56.66
2023-08-27T20:53:46.371Z,56.88
2023-08-27T20:56:14.388Z,57.41
2023-08-27T20:58:42.447Z,57.35
2023-08-27T21:01:10.900Z,57.43
2023-08-27T21:03:39.397Z,57.46
2023-08-27T21:06:07.665Z,57.51
2023-08-27T21:08:36.949Z,57.85
2023-08-27T21:11:09.080Z,57.74
2023-08-27T21:13:37.637Z,57.81
2023-08-27T21:16:05.997Z,57.82
2023-08-27T21:18:34.037Z,57.85
2023-08-27T21:21:02.029Z,58.26
2023-08-27T21:23:29.968Z,58.07
2023-08-27T21:26:00.394Z,57.88
2023-08-27T21:28:28.474Z,58.34
2023-08-27T21:30:57.971Z,58.34
2023-08-27T21:33:28.736Z,58.41
2023-08-27T21:35:56.682Z,59.05
2023-08-27T21:38:24.592Z,59.11
2023-08-27T21:40:55.144Z,59.22
2023-08-27T21:43:24.436Z,59.41
2023-08-27T21:45:52.321Z,60.59
2023-08-27T21:48:20.308Z,61.29
2023-08-27T21:50:48.250Z,61.66
2023-08-27T21:53:16.700Z,60.91
2023-08-27T21:55:44.620Z,61.21
2023-08-27T21:58:12.495Z,62.97
2023-08-27T22:00:42.069Z,63.95
2023-08-27T22:03:10.020Z,63.81
2023-08-27T22:05:38.005Z,63.38
2023-08-27T22:08:06.761Z,62.79
2023-08-27T22:10:35.671Z,62.17
2023-08-27T22:13:05.370Z,61.44
2023-08-27T22:15:33.518Z,61.36
2023-08-27T22:18:02.960Z,61.13
2023-08-27T22:20:31.330Z,60.84
2023-08-27T22:22:59.759Z,61.04
2023-08-27T22:25:28.021Z,61.13
2023-08-27T22:27:55.926Z,60.96
2023-08-27T22:30:23.927Z,60.94
2023-08-27T22:32:51.949Z,60.92
2023-08-27T22:35:21.889Z,60.90
2023-08-27T22:37:49.898Z,61.02
2023-08-27T22:40:18.096Z,60.79
2023-08-27T22:42:46.765Z,60.69
2023-08-27T22:45:14.722Z,60.83
2023-08-27T22:47:42.729Z,60.57
2023-08-27T22:50:10.926Z,60.36
2023-08-27T22:52:40.352Z,60.56
2023-08-27T22:55:09.157Z,60.41
2023-08-27T22:57:37.079Z,60.33
2023-08-27T23:00:07.085Z,60.45
2023-08-27T23:02:35.032Z,60.38
2023-08-27T23:05:03.265Z,60.35
2023-08-27T23:07:31.405Z,60.23
2023-08-27T23:10:00.664Z,60.15
2023-08-27T23:12:28.565Z,60.21
2023-08-27T23:14:56.518Z,60.11
2023-08-27T23:17:24.543Z,59.92
2023-08-27T23:19:52.518Z,60.29
2023-08-27T23:22:20.426Z,60.26
2023-08-27T23:24:48.678Z,60.51
2023-08-27T23:27:17.997Z,60.58
2023-08-27T23:29:45.845Z,60.66
2023-08-27T23:32:13.839Z,60.71
2023-08-27T23:34:41.776Z,60.74
2023-08-27T23:37:09.766Z,60.67
2023-08-27T23:39:38.461Z,60.65
2023-08-27T23:42:06.653Z,60.48
2023-08-27T23:44:36.919Z,60.61
2023-08-27T23:47:05.440Z,60.45
2023-08-27T23:49:33.362Z,60.53
2023-08-27T23:52:01.309Z,60.63
2023-08-27T23:54:29.317Z,60.58
2023-08-27T23:56:57.307Z,60.77
2023-08-27T23:59:25.830Z,60.76
